sensor_id;sensor_type;location;lat;lon;timestamp;P1;durP1;ratioP1;P2;durP2;ratioP2
46322;SDS011;32044;52.386;13.278;2023-05-13T00:01:04;12.50;;;4.13;;
46322;SDS011;32044;52.386;13.278;2023-05-13T00:03:32;11.70;;;4.55;;
46322;SDS011;32044;52.386;13.278;2023-05-13T00:06:01;14.05;;;4.18;;
46322;SDS011;32044;52.386;13.278;2023-05-13T00:08:28;7.60;;;4.53;;
46322;SDS011;32044;52.386;13.278;2023-05-13T00:10:56;9.13;;;4.32;;
46322;SDS011;32044;52.386;13.278;2023-05-13T00:13:23;11.48;;;4.63;;
46322;SDS011;32044;52.386;13.278;2023-05-13T00:15:51;9.23;;;4.30;;
46322;SDS011;32044;52.386;13.278;2023-05-13T00:18:19;10.75;;;4.60;;
46322;SDS011;32044;52.386;13.278;2023-05-13T00:20:46;12.27;;;4.38;;
46322;SDS011;32044;52.386;13.278;2023-05-13T00:23:15;9.82;;;4.50;;
46322;SDS011;32044;52.386;13.278;2023-05-13T00:25:43;7.60;;;3.95;;
46322;SDS011;32044;52.386;13.278;2023-05-13T00:28:10;13.77;;;4.32;;
46322;SDS011;32044;52.386;13.278;2023-05-13T00:30:40;9.40;;;4.78;;
46322;SDS011;32044;52.386;13.278;2023-05-13T00:33:08;8.60;;;4.45;;
46322;SDS011;32044;52.386;13.278;2023-05-13T00:35:36;6.65;;;4.15;;
46322;SDS011;32044;52.386;13.278;2023-05-13T00:38:04;6.82;;;4.28;;
46322;SDS011;32044;52.386;13.278;2023-05-13T00:40:35;8.57;;;4.22;;
46322;SDS011;32044;52.386;13.278;2023-05-13T00:43:04;11.55;;;4.53;;
46322;SDS011;32044;52.386;13.278;2023-05-13T00:45:32;9.60;;;4.22;;
46322;SDS011;32044;52.386;13.278;2023-05-13T00:48:00;8.85;;;4.60;;
46322;SDS011;32044;52.386;13.278;2023-05-13T00:50:27;11.20;;;4.72;;
46322;SDS011;32044;52.386;13.278;2023-05-13T00:52:55;6.25;;;4.55;;
46322;SDS011;32044;52.386;13.278;2023-05-13T00:55:23;7.10;;;4.10;;
46322;SDS011;32044;52.386;13.278;2023-05-13T00:57:53;10.10;;;5.05;;
46322;SDS011;32044;52.386;13.278;2023-05-13T01:00:20;7.63;;;4.65;;
46322;SDS011;32044;52.386;13.278;2023-05-13T01:02:49;8.73;;;4.38;;
46322;SDS011;32044;52.386;13.278;2023-05-13T01:05:21;7.43;;;4.57;;
46322;SDS011;32044;52.386;13.278;2023-05-13T01:07:56;9.32;;;4.95;;
46322;SDS011;32044;52.386;13.278;2023-05-13T01:10:36;11.10;;;5.63;;
46322;SDS011;32044;52.386;13.278;2023-05-13T01:13:09;16.67;;;4.90;;
46322;SDS011;32044;52.386;13.278;2023-05-13T01:15:39;7.18;;;5.13;;
46322;SDS011;32044;52.386;13.278;2023-05-13T01:18:08;11.88;;;4.68;;
46322;SDS011;32044;52.386;13.278;2023-05-13T01:20:37;12.23;;;4.30;;
46322;SDS011;32044;52.386;13.278;2023-05-13T01:23:08;8.75;;;5.00;;
46322;SDS011;32044;52.386;13.278;2023-05-13T01:25:36;7.85;;;4.30;;
46322;SDS011;32044;52.386;13.278;2023-05-13T01:28:04;10.55;;;4.60;;
46322;SDS011;32044;52.386;13.278;2023-05-13T01:30:31;8.52;;;4.85;;
46322;SDS011;32044;52.386;13.278;2023-05-13T01:32:59;10.55;;;5.15;;
46322;SDS011;32044;52.386;13.278;2023-05-13T01:35:27;8.57;;;5.03;;
46322;SDS011;32044;52.386;13.278;2023-05-13T01:37:55;8.50;;;4.22;;
46322;SDS011;32044;52.386;13.278;2023-05-13T01:40:24;12.10;;;5.18;;
46322;SDS011;32044;52.386;13.278;2023-05-13T01:42:58;10.70;;;4.72;;
46322;SDS011;32044;52.386;13.278;2023-05-13T01:45:26;9.55;;;4.03;;
46322;SDS011;32044;52.386;13.278;2023-05-13T01:47:54;7.13;;;3.88;;
46322;SDS011;32044;52.386;13.278;2023-05-13T01:50:21;9.35;;;4.90;;
46322;SDS011;32044;52.386;13.278;2023-05-13T01:52:49;8.88;;;4.63;;
46322;SDS011;32044;52.386;13.278;2023-05-13T01:55:17;10.70;;;4.97;;
46322;SDS011;32044;52.386;13.278;2023-05-13T01:57:46;10.38;;;5.10;;
46322;SDS011;32044;52.386;13.278;2023-05-13T02:00:14;7.25;;;5.00;;
46322;SDS011;32044;52.386;13.278;2023-05-13T02:02:42;8.15;;;4.95;;
46322;SDS011;32044;52.386;13.278;2023-05-13T02:05:09;8.00;;;4.43;;
46322;SDS011;32044;52.386;13.278;2023-05-13T02:07:37;7.45;;;4.65;;
46322;SDS011;32044;52.386;13.278;2023-05-13T02:10:05;12.30;;;4.80;;
46322;SDS011;32044;52.386;13.278;2023-05-13T02:12:33;6.10;;;5.22;;
46322;SDS011;32044;52.386;13.278;2023-05-13T02:15:02;10.35;;;4.90;;
46322;SDS011;32044;52.386;13.278;2023-05-13T02:17:29;6.53;;;4.40;;
46322;SDS011;32044;52.386;13.278;2023-05-13T02:19:57;8.45;;;5.07;;
46322;SDS011;32044;52.386;13.278;2023-05-13T02:22:24;8.27;;;4.63;;
46322;SDS011;32044;52.386;13.278;2023-05-13T02:24:52;14.38;;;5.05;;
46322;SDS011;32044;52.386;13.278;2023-05-13T02:27:19;9.15;;;4.50;;
46322;SDS011;32044;52.386;13.278;2023-05-13T02:29:48;10.80;;;5.15;;
46322;SDS011;32044;52.386;13.278;2023-05-13T02:32:17;8.63;;;4.88;;
46322;SDS011;32044;52.386;13.278;2023-05-13T02:34:45;10.98;;;4.95;;
46322;SDS011;32044;52.386;13.278;2023-05-13T02:37:12;10.57;;;4.80;;
46322;SDS011;32044;52.386;13.278;2023-05-13T02:39:40;6.80;;;4.80;;
46322;SDS011;32044;52.386;13.278;2023-05-13T02:42:07;7.03;;;4.43;;
46322;SDS011;32044;52.386;13.278;2023-05-13T02:44:35;9.27;;;5.30;;
46322;SDS011;32044;52.386;13.278;2023-05-13T02:47:02;8.00;;;5.18;;
46322;SDS011;32044;52.386;13.278;2023-05-13T02:49:31;6.90;;;5.22;;
46322;SDS011;32044;52.386;13.278;2023-05-13T02:51:59;7.85;;;4.78;;
46322;SDS011;32044;52.386;13.278;2023-05-13T02:54:27;14.00;;;5.78;;
46322;SDS011;32044;52.386;13.278;2023-05-13T02:56:54;14.10;;;5.72;;
46322;SDS011;32044;52.386;13.278;2023-05-13T02:59:22;8.43;;;5.20;;
46322;SDS011;32044;52.386;13.278;2023-05-13T03:01:49;8.35;;;5.45;;
46322;SDS011;32044;52.386;13.278;2023-05-13T03:04:17;14.55;;;5.20;;
46322;SDS011;32044;52.386;13.278;2023-05-13T03:06:46;10.35;;;5.35;;
46322;SDS011;32044;52.386;13.278;2023-05-13T03:09:14;9.75;;;5.28;;
46322;SDS011;32044;52.386;13.278;2023-05-13T03:11:41;8.80;;;5.20;;
46322;SDS011;32044;52.386;13.278;2023-05-13T03:14:09;10.40;;;5.32;;
46322;SDS011;32044;52.386;13.278;2023-05-13T03:16:36;12.15;;;5.15;;
46322;SDS011;32044;52.386;13.278;2023-05-13T03:19:04;12.43;;;5.03;;
46322;SDS011;32044;52.386;13.278;2023-05-13T03:21:31;8.98;;;5.90;;
46322;SDS011;32044;52.386;13.278;2023-05-13T03:24:00;8.20;;;5.05;;
46322;SDS011;32044;52.386;13.278;2023-05-13T03:26:28;12.50;;;5.10;;
46322;SDS011;32044;52.386;13.278;2023-05-13T03:28:55;11.55;;;5.13;;
46322;SDS011;32044;52.386;13.278;2023-05-13T03:31:23;10.77;;;5.32;;
46322;SDS011;32044;52.386;13.278;2023-05-13T03:33:50;10.85;;;5.10;;
46322;SDS011;32044;52.386;13.278;2023-05-13T03:36:18;12.18;;;5.57;;
46322;SDS011;32044;52.386;13.278;2023-05-13T03:38:45;9.00;;;5.53;;
46322;SDS011;32044;52.386;13.278;2023-05-13T03:41:14;13.35;;;5.07;;
46322;SDS011;32044;52.386;13.278;2023-05-13T03:43:42;7.85;;;5.32;;
46322;SDS011;32044;52.386;13.278;2023-05-13T03:46:10;10.65;;;5.32;;
46322;SDS011;32044;52.386;13.278;2023-05-13T03:48:37;9.70;;;4.95;;
46322;SDS011;32044;52.386;13.278;2023-05-13T03:51:05;9.52;;;5.80;;
46322;SDS011;32044;52.386;13.278;2023-05-13T03:53:32;7.85;;;5.00;;
46322;SDS011;32044;52.386;13.278;2023-05-13T03:56:00;11.45;;;5.70;;
46322;SDS011;32044;52.386;13.278;2023-05-13T03:58:29;13.27;;;5.50;;
46322;SDS011;32044;52.386;13.278;2023-05-13T04:00:56;12.23;;;5.63;;
46322;SDS011;32044;52.386;13.278;2023-05-13T04:03:24;14.85;;;6.35;;
46322;SDS011;32044;52.386;13.278;2023-05-13T04:05:51;17.35;;;6.10;;
46322;SDS011;32044;52.386;13.278;2023-05-13T04:08:19;8.02;;;5.30;;
46322;SDS011;32044;52.386;13.278;2023-05-13T04:10:46;7.75;;;5.20;;
46322;SDS011;32044;52.386;13.278;2023-05-13T04:13:14;7.68;;;5.65;;
46322;SDS011;32044;52.386;13.278;2023-05-13T04:15:43;13.70;;;5.75;;
46322;SDS011;32044;52.386;13.278;2023-05-13T04:18:10;8.10;;;4.80;;
46322;SDS011;32044;52.386;13.278;2023-05-13T04:20:38;11.68;;;5.78;;
46322;SDS011;32044;52.386;13.278;2023-05-13T04:23:05;8.43;;;5.03;;
46322;SDS011;32044;52.386;13.278;2023-05-13T04:25:33;9.40;;;4.88;;
46322;SDS011;32044;52.386;13.278;2023-05-13T04:28:01;12.55;;;5.30;;
46322;SDS011;32044;52.386;13.278;2023-05-13T04:30:29;7.88;;;5.45;;
46322;SDS011;32044;52.386;13.278;2023-05-13T04:32:58;10.45;;;5.55;;
46322;SDS011;32044;52.386;13.278;2023-05-13T04:35:25;11.90;;;5.45;;
46322;SDS011;32044;52.386;13.278;2023-05-13T04:37:53;12.00;;;5.53;;
46322;SDS011;32044;52.386;13.278;2023-05-13T04:40:20;13.55;;;5.60;;
46322;SDS011;32044;52.386;13.278;2023-05-13T04:42:48;10.15;;;5.53;;
46322;SDS011;32044;52.386;13.278;2023-05-13T04:45:20;11.15;;;5.70;;
46322;SDS011;32044;52.386;13.278;2023-05-13T04:47:47;9.15;;;5.28;;
46322;SDS011;32044;52.386;13.278;2023-05-13T04:50:16;13.20;;;5.47;;
46322;SDS011;32044;52.386;13.278;2023-05-13T04:52:44;13.27;;;5.53;;
46322;SDS011;32044;52.386;13.278;2023-05-13T04:55:12;13.70;;;5.72;;
46322;SDS011;32044;52.386;13.278;2023-05-13T04:57:40;12.45;;;5.32;;
46322;SDS011;32044;52.386;13.278;2023-05-13T05:00:08;9.38;;;5.55;;
46322;SDS011;32044;52.386;13.278;2023-05-13T05:02:36;8.25;;;5.45;;
46322;SDS011;32044;52.386;13.278;2023-05-13T05:05:04;8.65;;;5.55;;
46322;SDS011;32044;52.386;13.278;2023-05-13T05:07:35;9.45;;;5.72;;
46322;SDS011;32044;52.386;13.278;2023-05-13T05:10:06;13.60;;;5.35;;
46322;SDS011;32044;52.386;13.278;2023-05-13T05:12:34;11.73;;;5.65;;
46322;SDS011;32044;52.386;13.278;2023-05-13T05:15:03;12.27;;;5.38;;
46322;SDS011;32044;52.386;13.278;2023-05-13T05:17:31;9.63;;;5.93;;
46322;SDS011;32044;52.386;13.278;2023-05-13T05:19:59;11.63;;;5.22;;
46322;SDS011;32044;52.386;13.278;2023-05-13T05:22:26;12.70;;;4.95;;
46322;SDS011;32044;52.386;13.278;2023-05-13T05:24:55;6.78;;;4.70;;
46322;SDS011;32044;52.386;13.278;2023-05-13T05:27:23;10.90;;;5.32;;
46322;SDS011;32044;52.386;13.278;2023-05-13T05:29:50;11.65;;;5.57;;
46322;SDS011;32044;52.386;13.278;2023-05-13T05:32:18;10.05;;;5.30;;
46322;SDS011;32044;52.386;13.278;2023-05-13T05:34:45;9.35;;;5.32;;
46322;SDS011;32044;52.386;13.278;2023-05-13T05:37:13;6.65;;;4.70;;
46322;SDS011;32044;52.386;13.278;2023-05-13T05:39:42;10.43;;;5.28;;
46322;SDS011;32044;52.386;13.278;2023-05-13T05:42:11;9.43;;;4.90;;
46322;SDS011;32044;52.386;13.278;2023-05-13T05:44:38;11.27;;;5.57;;
46322;SDS011;32044;52.386;13.278;2023-05-13T05:47:06;11.32;;;4.97;;
46322;SDS011;32044;52.386;13.278;2023-05-13T05:49:33;8.00;;;5.15;;
46322;SDS011;32044;52.386;13.278;2023-05-13T05:52:01;9.48;;;4.90;;
46322;SDS011;32044;52.386;13.278;2023-05-13T05:54:29;13.88;;;4.95;;
46322;SDS011;32044;52.386;13.278;2023-05-13T05:56:56;9.10;;;5.00;;
46322;SDS011;32044;52.386;13.278;2023-05-13T05:59:25;9.73;;;4.63;;
46322;SDS011;32044;52.386;13.278;2023-05-13T06:01:53;7.10;;;4.82;;
46322;SDS011;32044;52.386;13.278;2023-05-13T06:04:20;11.80;;;4.97;;
46322;SDS011;32044;52.386;13.278;2023-05-13T06:06:48;9.43;;;4.20;;
46322;SDS011;32044;52.386;13.278;2023-05-13T06:09:15;13.80;;;5.03;;
46322;SDS011;32044;52.386;13.278;2023-05-13T06:11:43;7.50;;;4.47;;
46322;SDS011;32044;52.386;13.278;2023-05-13T06:14:10;10.15;;;4.28;;
46322;SDS011;32044;52.386;13.278;2023-05-13T06:16:39;10.25;;;4.22;;
46322;SDS011;32044;52.386;13.278;2023-05-13T06:19:07;10.52;;;4.53;;
46322;SDS011;32044;52.386;13.278;2023-05-13T06:21:34;7.03;;;4.00;;
46322;SDS011;32044;52.386;13.278;2023-05-13T06:24:02;9.50;;;4.25;;
46322;SDS011;32044;52.386;13.278;2023-05-13T06:26:29;8.07;;;4.40;;
46322;SDS011;32044;52.386;13.278;2023-05-13T06:28:57;6.97;;;3.90;;
46322;SDS011;32044;52.386;13.278;2023-05-13T06:31:25;6.25;;;4.05;;
46322;SDS011;32044;52.386;13.278;2023-05-13T06:33:54;8.02;;;4.10;;
46322;SDS011;32044;52.386;13.278;2023-05-13T06:36:21;9.98;;;4.32;;
46322;SDS011;32044;52.386;13.278;2023-05-13T06:38:49;11.68;;;4.25;;
46322;SDS011;32044;52.386;13.278;2023-05-13T06:41:16;12.15;;;4.10;;
46322;SDS011;32044;52.386;13.278;2023-05-13T06:43:44;12.35;;;4.05;;
46322;SDS011;32044;52.386;13.278;2023-05-13T06:46:11;6.93;;;3.42;;
46322;SDS011;32044;52.386;13.278;2023-05-13T06:48:39;9.32;;;3.67;;
46322;SDS011;32044;52.386;13.278;2023-05-13T06:51:07;10.40;;;4.30;;
46322;SDS011;32044;52.386;13.278;2023-05-13T06:53:35;8.23;;;3.67;;
46322;SDS011;32044;52.386;13.278;2023-05-13T06:56:03;7.05;;;3.58;;
46322;SDS011;32044;52.386;13.278;2023-05-13T06:58:30;8.45;;;3.90;;
46322;SDS011;32044;52.386;13.278;2023-05-13T07:00:58;6.75;;;3.80;;
46322;SDS011;32044;52.386;13.278;2023-05-13T07:03:25;5.20;;;3.42;;
46322;SDS011;32044;52.386;13.278;2023-05-13T07:05:53;8.40;;;3.67;;
46322;SDS011;32044;52.386;13.278;2023-05-13T07:08:22;12.73;;;3.42;;
46322;SDS011;32044;52.386;13.278;2023-05-13T07:10:49;7.65;;;3.63;;
46322;SDS011;32044;52.386;13.278;2023-05-13T07:13:17;9.43;;;3.30;;
46322;SDS011;32044;52.386;13.278;2023-05-13T07:15:45;8.38;;;3.38;;
46322;SDS011;32044;52.386;13.278;2023-05-13T07:18:13;11.57;;;3.47;;
46322;SDS011;32044;52.386;13.278;2023-05-13T07:20:40;6.90;;;2.90;;
46322;SDS011;32044;52.386;13.278;2023-05-13T07:23:08;6.10;;;2.80;;
46322;SDS011;32044;52.386;13.278;2023-05-13T07:25:37;10.00;;;3.67;;
46322;SDS011;32044;52.386;13.278;2023-05-13T07:28:04;7.10;;;3.17;;
46322;SDS011;32044;52.386;13.278;2023-05-13T07:30:32;5.53;;;2.90;;
46322;SDS011;32044;52.386;13.278;2023-05-13T07:33:00;7.38;;;3.53;;
46322;SDS011;32044;52.386;13.278;2023-05-13T07:35:27;5.70;;;3.10;;
46322;SDS011;32044;52.386;13.278;2023-05-13T07:37:55;7.63;;;2.83;;
46322;SDS011;32044;52.386;13.278;2023-05-13T07:40:22;16.88;;;3.80;;
46322;SDS011;32044;52.386;13.278;2023-05-13T07:42:51;7.97;;;2.97;;
46322;SDS011;32044;52.386;13.278;2023-05-13T07:45:19;4.40;;;2.72;;
46322;SDS011;32044;52.386;13.278;2023-05-13T07:47:47;5.10;;;3.20;;
46322;SDS011;32044;52.386;13.278;2023-05-13T07:50:15;6.15;;;2.58;;
46322;SDS011;32044;52.386;13.278;2023-05-13T07:52:42;6.90;;;2.83;;
46322;SDS011;32044;52.386;13.278;2023-05-13T07:55:14;7.03;;;3.00;;
46322;SDS011;32044;52.386;13.278;2023-05-13T07:57:41;6.68;;;3.20;;
46322;SDS011;32044;52.386;13.278;2023-05-13T08:00:10;4.72;;;2.53;;
46322;SDS011;32044;52.386;13.278;2023-05-13T08:02:40;5.93;;;2.95;;
46322;SDS011;32044;52.386;13.278;2023-05-13T08:05:08;6.28;;;3.08;;
46322;SDS011;32044;52.386;13.278;2023-05-13T08:07:36;5.93;;;2.95;;
46322;SDS011;32044;52.386;13.278;2023-05-13T08:10:04;3.78;;;2.90;;
46322;SDS011;32044;52.386;13.278;2023-05-13T08:12:32;6.47;;;3.38;;
46322;SDS011;32044;52.386;13.278;2023-05-13T08:14:59;3.67;;;2.83;;
46322;SDS011;32044;52.386;13.278;2023-05-13T08:17:30;6.30;;;2.72;;
46322;SDS011;32044;52.386;13.278;2023-05-13T08:19:57;9.68;;;3.08;;
46322;SDS011;32044;52.386;13.278;2023-05-13T08:22:25;3.30;;;2.78;;
46322;SDS011;32044;52.386;13.278;2023-05-13T08:24:53;7.32;;;2.80;;
46322;SDS011;32044;52.386;13.278;2023-05-13T08:27:20;4.32;;;2.50;;
46322;SDS011;32044;52.386;13.278;2023-05-13T08:29:48;4.68;;;2.88;;
46322;SDS011;32044;52.386;13.278;2023-05-13T08:32:15;5.18;;;3.22;;
46322;SDS011;32044;52.386;13.278;2023-05-13T08:34:45;8.00;;;3.28;;
46322;SDS011;32044;52.386;13.278;2023-05-13T08:37:12;8.18;;;2.78;;
46322;SDS011;32044;52.386;13.278;2023-05-13T08:39:40;6.15;;;3.15;;
46322;SDS011;32044;52.386;13.278;2023-05-13T08:42:07;6.28;;;3.55;;
46322;SDS011;32044;52.386;13.278;2023-05-13T08:44:38;5.07;;;3.70;;
46322;SDS011;32044;52.386;13.278;2023-05-13T08:47:07;6.97;;;3.45;;
46322;SDS011;32044;52.386;13.278;2023-05-13T08:49:39;8.20;;;4.53;;
46322;SDS011;32044;52.386;13.278;2023-05-13T08:52:08;4.80;;;2.90;;
46322;SDS011;32044;52.386;13.278;2023-05-13T08:54:35;6.22;;;3.10;;
46322;SDS011;32044;52.386;13.278;2023-05-13T08:57:04;6.68;;;3.67;;
46322;SDS011;32044;52.386;13.278;2023-05-13T08:59:32;6.93;;;3.08;;
46322;SDS011;32044;52.386;13.278;2023-05-13T09:02:00;8.57;;;3.45;;
46322;SDS011;32044;52.386;13.278;2023-05-13T09:04:28;9.75;;;3.15;;
46322;SDS011;32044;52.386;13.278;2023-05-13T09:06:56;4.80;;;2.97;;
46322;SDS011;32044;52.386;13.278;2023-05-13T09:09:25;8.10;;;2.97;;
46322;SDS011;32044;52.386;13.278;2023-05-13T09:11:53;7.80;;;3.03;;
46322;SDS011;32044;52.386;13.278;2023-05-13T09:14:20;6.63;;;3.00;;
46322;SDS011;32044;52.386;13.278;2023-05-13T09:16:48;6.03;;;3.03;;
46322;SDS011;32044;52.386;13.278;2023-05-13T09:19:16;6.68;;;3.53;;
46322;SDS011;32044;52.386;13.278;2023-05-13T09:21:43;4.63;;;2.97;;
46322;SDS011;32044;52.386;13.278;2023-05-13T09:24:11;7.22;;;3.33;;
46322;SDS011;32044;52.386;13.278;2023-05-13T09:26:45;12.18;;;3.33;;
46322;SDS011;32044;52.386;13.278;2023-05-13T09:29:12;4.90;;;3.15;;
46322;SDS011;32044;52.386;13.278;2023-05-13T09:31:41;10.18;;;3.40;;
46322;SDS011;32044;52.386;13.278;2023-05-13T09:34:08;8.85;;;3.10;;
46322;SDS011;32044;52.386;13.278;2023-05-13T09:36:36;5.28;;;2.90;;
46322;SDS011;32044;52.386;13.278;2023-05-13T09:39:04;6.35;;;2.95;;
46322;SDS011;32044;52.386;13.278;2023-05-13T09:41:32;4.88;;;2.80;;
46322;SDS011;32044;52.386;13.278;2023-05-13T09:44:02;5.32;;;2.67;;
46322;SDS011;32044;52.386;13.278;2023-05-13T09:46:30;6.40;;;3.03;;
46322;SDS011;32044;52.386;13.278;2023-05-13T09:48:59;4.70;;;2.58;;
46322;SDS011;32044;52.386;13.278;2023-05-13T09:51:27;5.78;;;2.72;;
46322;SDS011;32044;52.386;13.278;2023-05-13T09:54:01;6.25;;;2.97;;
46322;SDS011;32044;52.386;13.278;2023-05-13T09:56:29;8.30;;;2.95;;
46322;SDS011;32044;52.386;13.278;2023-05-13T09:58:58;6.25;;;2.63;;
46322;SDS011;32044;52.386;13.278;2023-05-13T10:01:29;8.18;;;3.60;;
46322;SDS011;32044;52.386;13.278;2023-05-13T10:03:57;5.70;;;2.38;;
46322;SDS011;32044;52.386;13.278;2023-05-13T10:06:25;3.60;;;2.42;;
46322;SDS011;32044;52.386;13.278;2023-05-13T10:08:54;5.32;;;2.88;;
46322;SDS011;32044;52.386;13.278;2023-05-13T10:11:24;4.35;;;2.80;;
46322;SDS011;32044;52.386;13.278;2023-05-13T10:13:54;4.63;;;2.40;;
46322;SDS011;32044;52.386;13.278;2023-05-13T10:16:25;6.72;;;2.40;;
46322;SDS011;32044;52.386;13.278;2023-05-13T10:18:56;8.73;;;2.28;;
46322;SDS011;32044;52.386;13.278;2023-05-13T10:21:24;4.50;;;2.03;;
46322;SDS011;32044;52.386;13.278;2023-05-13T10:23:52;5.57;;;2.50;;
46322;SDS011;32044;52.386;13.278;2023-05-13T10:26:20;6.22;;;2.33;;
46322;SDS011;32044;52.386;13.278;2023-05-13T10:28:49;4.30;;;2.83;;
46322;SDS011;32044;52.386;13.278;2023-05-13T10:31:17;6.30;;;2.92;;
46322;SDS011;32044;52.386;13.278;2023-05-13T10:33:44;4.22;;;2.55;;
46322;SDS011;32044;52.386;13.278;2023-05-13T10:36:18;7.50;;;2.90;;
46322;SDS011;32044;52.386;13.278;2023-05-13T10:38:58;5.97;;;3.05;;
46322;SDS011;32044;52.386;13.278;2023-05-13T10:41:50;5.53;;;2.60;;
46322;SDS011;32044;52.386;13.278;2023-05-13T10:44:33;4.57;;;2.65;;
46322;SDS011;32044;52.386;13.278;2023-05-13T10:47:01;10.85;;;2.92;;
46322;SDS011;32044;52.386;13.278;2023-05-13T10:49:31;4.32;;;2.33;;
46322;SDS011;32044;52.386;13.278;2023-05-13T10:52:03;6.20;;;2.30;;
46322;SDS011;32044;52.386;13.278;2023-05-13T10:54:35;7.95;;;2.67;;
46322;SDS011;32044;52.386;13.278;2023-05-13T10:57:03;9.50;;;2.45;;
46322;SDS011;32044;52.386;13.278;2023-05-13T10:59:31;4.15;;;2.33;;
46322;SDS011;32044;52.386;13.278;2023-05-13T11:02:01;7.07;;;1.98;;
46322;SDS011;32044;52.386;13.278;2023-05-13T11:04:29;6.07;;;2.17;;
46322;SDS011;32044;52.386;13.278;2023-05-13T11:06:57;6.78;;;2.38;;
46322;SDS011;32044;52.386;13.278;2023-05-13T11:09:47;2.58;;;2.00;;
46322;SDS011;32044;52.386;13.278;2023-05-13T11:12:16;5.15;;;2.17;;
46322;SDS011;32044;52.386;13.278;2023-05-13T11:14:43;7.45;;;2.47;;
46322;SDS011;32044;52.386;13.278;2023-05-13T11:17:11;5.70;;;2.40;;
46322;SDS011;32044;52.386;13.278;2023-05-13T11:19:44;10.25;;;2.35;;
46322;SDS011;32044;52.386;13.278;2023-05-13T11:22:14;6.82;;;2.35;;
46322;SDS011;32044;52.386;13.278;2023-05-13T11:24:45;4.10;;;2.28;;
46322;SDS011;32044;52.386;13.278;2023-05-13T11:27:14;6.10;;;1.95;;
46322;SDS011;32044;52.386;13.278;2023-05-13T11:29:47;6.05;;;2.38;;
46322;SDS011;32044;52.386;13.278;2023-05-13T11:32:46;9.15;;;3.00;;
46322;SDS011;32044;52.386;13.278;2023-05-13T11:35:17;3.92;;;1.90;;
46322;SDS011;32044;52.386;13.278;2023-05-13T11:37:46;5.53;;;2.33;;
46322;SDS011;32044;52.386;13.278;2023-05-13T11:40:20;8.88;;;2.20;;
46322;SDS011;32044;52.386;13.278;2023-05-13T11:42:48;6.68;;;2.60;;
46322;SDS011;32044;52.386;13.278;2023-05-13T11:45:16;5.20;;;2.40;;
46322;SDS011;32044;52.386;13.278;2023-05-13T11:47:46;5.78;;;2.70;;
46322;SDS011;32044;52.386;13.278;2023-05-13T11:50:17;12.52;;;2.40;;
46322;SDS011;32044;52.386;13.278;2023-05-13T11:52:44;7.30;;;2.53;;
46322;SDS011;32044;52.386;13.278;2023-05-13T11:55:13;9.77;;;2.50;;
46322;SDS011;32044;52.386;13.278;2023-05-13T11:57:50;4.80;;;2.22;;
46322;SDS011;32044;52.386;13.278;2023-05-13T12:00:22;5.47;;;2.10;;
46322;SDS011;32044;52.386;13.278;2023-05-13T12:02:51;6.10;;;2.08;;
46322;SDS011;32044;52.386;13.278;2023-05-13T12:05:19;6.30;;;2.28;;
46322;SDS011;32044;52.386;13.278;2023-05-13T12:07:47;5.32;;;2.20;;
46322;SDS011;32044;52.386;13.278;2023-05-13T12:10:16;5.53;;;2.38;;
46322;SDS011;32044;52.386;13.278;2023-05-13T12:12:44;3.33;;;1.90;;
46322;SDS011;32044;52.386;13.278;2023-05-13T12:15:12;6.80;;;2.40;;
46322;SDS011;32044;52.386;13.278;2023-05-13T12:17:40;5.07;;;2.50;;
46322;SDS011;32044;52.386;13.278;2023-05-13T12:20:09;6.03;;;2.47;;
46322;SDS011;32044;52.386;13.278;2023-05-13T12:22:49;8.80;;;2.08;;
46322;SDS011;32044;52.386;13.278;2023-05-13T12:25:43;5.28;;;2.17;;
46322;SDS011;32044;52.386;13.278;2023-05-13T12:28:12;4.97;;;2.20;;
46322;SDS011;32044;52.386;13.278;2023-05-13T12:30:43;6.37;;;2.20;;
46322;SDS011;32044;52.386;13.278;2023-05-13T12:33:16;5.40;;;2.10;;
46322;SDS011;32044;52.386;13.278;2023-05-13T12:35:45;5.80;;;2.25;;
46322;SDS011;32044;52.386;13.278;2023-05-13T12:38:15;5.40;;;2.33;;
46322;SDS011;32044;52.386;13.278;2023-05-13T12:40:45;8.18;;;1.98;;
46322;SDS011;32044;52.386;13.278;2023-05-13T12:43:14;6.10;;;2.25;;
46322;SDS011;32044;52.386;13.278;2023-05-13T12:45:43;9.30;;;2.30;;
46322;SDS011;32044;52.386;13.278;2023-05-13T12:48:12;6.03;;;2.05;;
46322;SDS011;32044;52.386;13.278;2023-05-13T12:50:40;6.90;;;2.40;;
46322;SDS011;32044;52.386;13.278;2023-05-13T12:53:08;6.88;;;2.33;;
46322;SDS011;32044;52.386;13.278;2023-05-13T12:55:35;5.78;;;2.17;;
46322;SDS011;32044;52.386;13.278;2023-05-13T12:58:06;5.07;;;2.25;;
46322;SDS011;32044;52.386;13.278;2023-05-13T13:03:04;3.47;;;2.60;;
46322;SDS011;32044;52.386;13.278;2023-05-13T13:05:33;7.65;;;2.58;;
46322;SDS011;32044;52.386;13.278;2023-05-13T13:08:00;7.10;;;2.22;;
46322;SDS011;32044;52.386;13.278;2023-05-13T13:10:30;7.72;;;2.42;;
46322;SDS011;32044;52.386;13.278;2023-05-13T13:12:58;4.60;;;2.50;;
46322;SDS011;32044;52.386;13.278;2023-05-13T13:15:26;5.10;;;2.42;;
46322;SDS011;32044;52.386;13.278;2023-05-13T13:17:54;5.25;;;2.50;;
46322;SDS011;32044;52.386;13.278;2023-05-13T13:20:22;5.30;;;2.40;;
46322;SDS011;32044;52.386;13.278;2023-05-13T13:22:49;5.20;;;2.47;;
46322;SDS011;32044;52.386;13.278;2023-05-13T13:25:17;6.90;;;2.42;;
46322;SDS011;32044;52.386;13.278;2023-05-13T13:27:44;9.40;;;2.80;;
46322;SDS011;32044;52.386;13.278;2023-05-13T13:30:12;8.00;;;2.50;;
46322;SDS011;32044;52.386;13.278;2023-05-13T13:32:42;5.18;;;2.45;;
46322;SDS011;32044;52.386;13.278;2023-05-13T13:35:09;5.30;;;2.53;;
46322;SDS011;32044;52.386;13.278;2023-05-13T13:37:37;4.63;;;2.70;;
46322;SDS011;32044;52.386;13.278;2023-05-13T13:40:05;5.82;;;2.10;;
46322;SDS011;32044;52.386;13.278;2023-05-13T13:42:33;6.65;;;2.72;;
46322;SDS011;32044;52.386;13.278;2023-05-13T13:45:10;7.57;;;2.38;;
46322;SDS011;32044;52.386;13.278;2023-05-13T13:47:38;4.90;;;2.88;;
46322;SDS011;32044;52.386;13.278;2023-05-13T13:50:07;6.25;;;3.00;;
46322;SDS011;32044;52.386;13.278;2023-05-13T13:52:36;4.53;;;2.45;;
46322;SDS011;32044;52.386;13.278;2023-05-13T13:55:03;7.93;;;2.60;;
46322;SDS011;32044;52.386;13.278;2023-05-13T13:57:32;5.13;;;2.42;;
46322;SDS011;32044;52.386;13.278;2023-05-13T13:59:59;6.85;;;2.35;;
46322;SDS011;32044;52.386;13.278;2023-05-13T14:02:27;7.95;;;2.50;;
46322;SDS011;32044;52.386;13.278;2023-05-13T14:04:54;3.47;;;2.40;;
46322;SDS011;32044;52.386;13.278;2023-05-13T14:07:23;4.68;;;2.42;;
46322;SDS011;32044;52.386;13.278;2023-05-13T14:09:51;5.85;;;2.70;;
46322;SDS011;32044;52.386;13.278;2023-05-13T14:12:18;3.97;;;2.30;;
46322;SDS011;32044;52.386;13.278;2023-05-13T14:14:46;6.38;;;2.50;;
46322;SDS011;32044;52.386;13.278;2023-05-13T14:17:13;5.45;;;2.40;;
46322;SDS011;32044;52.386;13.278;2023-05-13T14:19:41;4.60;;;2.47;;
46322;SDS011;32044;52.386;13.278;2023-05-13T14:22:09;5.90;;;3.15;;
46322;SDS011;32044;52.386;13.278;2023-05-13T14:24:37;4.70;;;2.47;;
46322;SDS011;32044;52.386;13.278;2023-05-13T14:27:05;4.47;;;2.47;;
46322;SDS011;32044;52.386;13.278;2023-05-13T14:29:33;4.35;;;2.67;;
46322;SDS011;32044;52.386;13.278;2023-05-13T14:32:00;8.23;;;2.80;;
46322;SDS011;32044;52.386;13.278;2023-05-13T14:34:28;4.07;;;2.38;;
46322;SDS011;32044;52.386;13.278;2023-05-13T14:36:56;5.13;;;2.53;;
46322;SDS011;32044;52.386;13.278;2023-05-13T14:39:23;5.22;;;2.28;;
46322;SDS011;32044;52.386;13.278;2023-05-13T14:41:52;4.50;;;2.47;;